createdAt,value
2019-02-20T00:01:29.844Z,84.49
2019-02-20T00:03:57.898Z,84.40
2019-02-20T00:06:25.889Z,85.32
2019-02-20T00:08:53.859Z,85.47
2019-02-20T00:11:21.954Z,85.31
2019-02-20T00:13:50.228Z,85.76
2019-02-20T00:16:18.510Z,86.06
2019-02-20T00:18:46.542Z,85.09
2019-02-20T00:21:14.423Z,85.12
2019-02-20T00:23:42.606Z,85.11
2019-02-20T00:26:10.448Z,84.93
2019-02-20T00:28:38.699Z,85.26
2019-02-20T00:31:06.490Z,85.17
2019-02-20T00:33:34.452Z,84.96
2019-02-20T00:36:02.315Z,84.98
2019-02-20T00:38:30.489Z,85.16
2019-02-20T00:40:58.556Z,85.22
2019-02-20T00:43:26.665Z,85.14
2019-02-20T00:46:12.347Z,85.32
2019-02-20T00:48:50.981Z,85.31
2019-02-20T00:51:35.347Z,85.74
2019-02-20T00:54:04.636Z,86.34
2019-02-20T00:56:32.488Z,86.62
2019-02-20T00:59:00.467Z,86.18
2019-02-20T01:01:28.439Z,86.08
2019-02-20T01:03:56.643Z,85.66
2019-02-20T01:06:24.839Z,85.98
2019-02-20T01:08:52.893Z,85.54
2019-02-20T01:11:21.108Z,85.31
2019-02-20T01:13:49.178Z,86.00
2019-02-20T01:16:19.230Z,85.60
2019-02-20T01:18:47.246Z,85.59
2019-02-20T01:21:15.158Z,85.37
2019-02-20T01:23:43.128Z,85.45
2019-02-20T01:26:11.281Z,85.53
2019-02-20T01:28:39.292Z,85.60
2019-02-20T01:31:07.355Z,85.97
2019-02-20T01:33:35.293Z,87.32
2019-02-20T01:36:04.727Z,87.46
2019-02-20T01:38:33.156Z,87.12
2019-02-20T01:41:01.121Z,87.20
2019-02-20T01:43:29.137Z,87.33
2019-02-20T01:45:56.986Z,87.65
2019-02-20T01:48:25.062Z,87.33
2019-02-20T01:50:53.029Z,86.61
2019-02-20T01:53:21.799Z,86.27
2019-02-20T01:55:49.891Z,86.72
2019-02-20T01:58:18.893Z,86.57
2019-02-20T02:00:46.872Z,86.42
2019-02-20T02:03:14.950Z,86.48
2019-02-20T02:05:42.835Z,86.42
2019-02-20T02:08:11.093Z,86.72
2019-02-20T02:10:39.167Z,86.73
2019-02-20T02:13:07.188Z,86.74
2019-02-20T02:15:35.131Z,87.03
2019-02-20T02:18:03.183Z,87.25
2019-02-20T02:20:31.448Z,87.51
2019-02-20T02:22:59.423Z,87.48
2019-02-20T02:25:27.963Z,87.59
2019-02-20T02:27:55.920Z,87.19
2019-02-20T02:30:24.037Z,86.77
2019-02-20T02:32:51.968Z,87.07
2019-02-20T02:35:20.063Z,86.90
2019-02-20T02:37:48.159Z,86.86
2019-02-20T02:40:16.268Z,86.54
2019-02-20T02:42:44.264Z,86.42
2019-02-20T02:45:12.122Z,86.48
2019-02-20T02:47:39.886Z,86.35
2019-02-20T02:50:07.784Z,86.19
2019-02-20T02:52:35.920Z,86.81
2019-02-20T02:55:04.231Z,86.34
2019-02-20T02:57:33.258Z,86.27
2019-02-20T03:00:01.115Z,86.07
2019-02-20T03:02:30.673Z,86.75
2019-02-20T03:04:58.562Z,86.54
2019-02-20T03:07:26.615Z,87.43
2019-02-20T03:09:54.583Z,87.43
2019-02-20T03:12:22.657Z,86.94
2019-02-20T03:14:50.532Z,86.79
2019-02-20T03:17:18.491Z,86.76
2019-02-20T03:19:46.271Z,86.72
2019-02-20T03:22:14.293Z,86.62
2019-02-20T03:24:42.326Z,86.90
2019-02-20T03:27:10.497Z,87.05
2019-02-20T03:29:39.477Z,87.19
2019-02-20T03:32:07.622Z,86.81
2019-02-20T03:34:36.704Z,86.97
2019-02-20T03:37:05.666Z,87.39
2019-02-20T03:39:33.850Z,87.86
2019-02-20T03:42:01.833Z,88.22
2019-02-20T03:44:29.797Z,87.85
2019-02-20T03:46:57.836Z,88.15
2019-02-20T03:49:27.000Z,88.16
2019-02-20T03:51:55.046Z,88.19
2019-02-20T03:54:23.104Z,87.96
2019-02-20T03:56:51.361Z,88.06
2019-02-20T03:59:19.538Z,87.91
2019-02-20T04:01:47.660Z,87.41
2019-02-20T04:04:15.683Z,87.30
2019-02-20T04:06:45.254Z,86.98
2019-02-20T04:09:13.258Z,87.13
2019-02-20T04:11:41.129Z,87.28
2019-02-20T04:14:08.916Z,87.09
2019-02-20T04:16:36.947Z,86.83
2019-02-20T04:19:04.784Z,87.33
2019-02-20T04:21:32.736Z,87.36
2019-02-20T04:24:02.829Z,87.46
2019-02-20T04:26:31.858Z,87.19
2019-02-20T04:28:59.921Z,87.52
2019-02-20T04:31:28.123Z,87.29
2019-02-20T04:33:56.212Z,87.16
2019-02-20T04:36:24.516Z,87.38
2019-02-20T04:38:52.472Z,87.99
2019-02-20T04:41:20.367Z,88.48
2019-02-20T04:43:48.398Z,88.70
2019-02-20T04:46:17.425Z,88.31
2019-02-20T04:48:45.296Z,87.93
2019-02-20T04:51:13.298Z,88.11
2019-02-20T04:53:41.366Z,88.11
2019-02-20T04:56:09.589Z,87.81
2019-02-20T04:58:37.506Z,87.93
2019-02-20T05:01:05.444Z,87.89
2019-02-20T05:03:33.238Z,88.08
2019-02-20T05:06:01.271Z,88.33
2019-02-20T05:08:29.176Z,88.02
2019-02-20T05:10:57.149Z,88.67
2019-02-20T05:13:25.094Z,88.90
2019-02-20T05:15:54.169Z,88.49
2019-02-20T05:18:22.251Z,88.30
2019-02-20T05:20:50.222Z,88.27
2019-02-20T05:23:18.188Z,88.31
2019-02-20T05:25:46.165Z,88.37
2019-02-20T05:28:14.225Z,88.20
2019-02-20T05:30:42.161Z,88.14
2019-02-20T05:33:10.988Z,88.16
2019-02-20T05:35:38.983Z,88.26
2019-02-20T05:38:06.994Z,88.39
2019-02-20T05:40:34.761Z,87.87
2019-02-20T05:43:02.620Z,87.45
2019-02-20T05:45:30.325Z,87.25
2019-02-20T05:47:58.263Z,87.20
2019-02-20T05:50:26.207Z,87.30
2019-02-20T05:52:54.216Z,87.40
2019-02-20T05:55:22.064Z,87.79
2019-02-20T05:57:50.183Z,87.41
2019-02-20T06:00:18.247Z,87.55
2019-02-20T06:02:46.280Z,87.66
2019-02-20T06:05:14.095Z,87.79
2019-02-20T06:07:42.363Z,88.80
2019-02-20T06:10:10.161Z,88.37
2019-02-20T06:12:38.170Z,88.59
2019-02-20T06:15:06.081Z,88.30
2019-02-20T06:17:34.218Z,88.32
2019-02-20T06:20:02.053Z,88.20
2019-02-20T06:22:30.132Z,88.19
2019-02-20T06:24:58.118Z,88.35
2019-02-20T06:27:26.076Z,88.35
2019-02-20T06:29:53.881Z,88.45
2019-02-20T06:32:23.998Z,87.89
2019-02-20T06:34:51.630Z,87.34
2019-02-20T06:37:19.684Z,87.16
2019-02-20T06:39:47.845Z,86.87
2019-02-20T06:42:15.629Z,86.82
2019-02-20T06:44:43.711Z,86.98
2019-02-20T06:47:11.780Z,87.22
2019-02-20T06:49:39.577Z,87.75
2019-02-20T06:52:07.515Z,87.21
2019-02-20T06:54:36.371Z,87.78
2019-02-20T06:57:04.337Z,87.87
2019-02-20T06:59:32.377Z,87.38
2019-02-20T07:02:00.409Z,86.99
2019-02-20T07:04:28.242Z,86.78
2019-02-20T07:07:34.145Z,86.55
2019-02-20T07:10:47.742Z,86.64
2019-02-20T07:14:00.606Z,86.69
2019-02-20T07:17:14.998Z,86.46
2019-02-20T07:19:55.416Z,85.83
2019-02-20T07:23:04.350Z,85.56
2019-02-20T07:26:31.802Z,85.81
2019-02-20T07:29:23.530Z,85.27
2019-02-20T07:31:51.397Z,84.96
2019-02-20T07:34:19.527Z,84.25
2019-02-20T07:36:47.612Z,83.96
2019-02-20T07:39:15.448Z,82.81
2019-02-20T07:41:43.512Z,81.36
2019-02-20T07:44:11.404Z,81.65
2019-02-20T07:46:39.645Z,81.55
2019-02-20T07:49:07.582Z,80.05
2019-02-20T07:51:35.610Z,79.53
2019-02-20T07:54:03.525Z,78.56
2019-02-20T07:56:31.419Z,77.51
2019-02-20T07:58:59.214Z,78.51
2019-02-20T08:01:27.253Z,75.86
2019-02-20T08:03:55.080Z,76.07
2019-02-20T08:06:23.164Z,75.20
2019-02-20T08:08:51.360Z,73.56
2019-02-20T08:11:19.550Z,73.35
2019-02-20T08:13:47.429Z,72.81
2019-02-20T08:16:15.388Z,72.20
2019-02-20T08:18:43.316Z,73.10
2019-02-20T08:21:11.334Z,72.64
2019-02-20T08:23:39.350Z,72.74
2019-02-20T08:26:07.426Z,72.60
2019-02-20T08:28:35.368Z,72.35
2019-02-20T08:31:03.289Z,72.15
2019-02-20T08:33:31.210Z,72.31
2019-02-20T08:35:59.446Z,71.76
2019-02-20T08:38:27.207Z,71.15
2019-02-20T08:40:55.405Z,70.73
2019-02-20T08:43:23.284Z,69.98
2019-02-20T08:45:51.326Z,70.97
2019-02-20T08:48:19.121Z,70.70
2019-02-20T08:50:47.267Z,71.24
2019-02-20T08:53:15.364Z,70.55
2019-02-20T08:55:43.416Z,69.69
2019-02-20T08:58:11.304Z,68.51
2019-02-20T09:00:39.236Z,68.92
2019-02-20T09:03:07.028Z,68.41
2019-02-20T09:05:34.944Z,68.32
2019-02-20T09:08:02.979Z,67.98
2019-02-20T09:10:30.524Z,67.54
2019-02-20T09:12:59.665Z,66.33
2019-02-20T09:15:27.581Z,65.31
2019-02-20T09:17:55.510Z,64.81
2019-02-20T09:20:23.623Z,64.82
2019-02-20T09:22:51.653Z,64.70
2019-02-20T09:25:20.264Z,63.50
2019-02-20T09:27:48.031Z,64.33
2019-02-20T09:30:16.045Z,64.01
2019-02-20T09:32:44.140Z,62.64
2019-02-20T09:35:12.434Z,62.16
2019-02-20T09:37:40.354Z,61.29
2019-02-20T09:40:11.258Z,61.53
2019-02-20T09:42:40.153Z,61.77
2019-02-20T09:45:08.167Z,62.01
2019-02-20T09:47:36.273Z,62.43
2019-02-20T09:50:04.677Z,61.28
2019-02-20T09:52:32.542Z,60.99
2019-02-20T09:55:01.362Z,61.00
2019-02-20T09:57:30.368Z,61.32
2019-02-20T09:59:58.135Z,61.33
2019-02-20T10:02:26.222Z,61.40
2019-02-20T10:04:54.236Z,61.65
2019-02-20T10:07:22.400Z,60.71
2019-02-20T10:09:50.223Z,59.62
2019-02-20T10:12:18.139Z,59.37
2019-02-20T10:14:46.215Z,59.66
2019-02-20T10:17:13.956Z,58.85
2019-02-20T10:19:42.006Z,59.95
2019-02-20T10:22:10.092Z,60.12
2019-02-20T10:24:38.338Z,59.72
2019-02-20T10:27:06.335Z,59.56
2019-02-20T10:29:34.478Z,58.99
2019-02-20T10:32:02.501Z,59.50
2019-02-20T10:34:30.604Z,59.85
2019-02-20T10:36:58.552Z,60.44
2019-02-20T10:39:26.736Z,60.57
2019-02-20T10:41:54.665Z,59.83
2019-02-20T10:44:22.697Z,60.19
2019-02-20T10:46:50.710Z,60.07
2019-02-20T10:49:18.767Z,60.01
2019-02-20T10:51:46.638Z,59.68
2019-02-20T10:54:14.589Z,59.02
2019-02-20T10:56:42.495Z,60.30
2019-02-20T10:59:10.672Z,60.58
2019-02-20T11:01:38.522Z,60.21
2019-02-20T11:04:06.389Z,59.93
2019-02-20T11:06:34.471Z,59.25
2019-02-20T11:09:04.180Z,60.05
2019-02-20T11:11:33.980Z,59.79
2019-02-20T11:14:02.156Z,58.94
2019-02-20T11:16:30.139Z,59.23
2019-02-20T11:18:58.264Z,58.61
2019-02-20T11:21:26.095Z,57.95
2019-02-20T11:23:54.023Z,57.98
2019-02-20T11:26:22.318Z,58.06
2019-02-20T11:28:50.467Z,59.21
2019-02-20T11:31:18.266Z,58.05
2019-02-20T11:33:46.291Z,57.10
2019-02-20T11:36:14.338Z,56.69
2019-02-20T11:38:42.269Z,56.33
2019-02-20T11:41:10.234Z,54.76
2019-02-20T11:43:39.286Z,52.64
2019-02-20T11:46:07.307Z,52.56
2019-02-20T11:48:35.273Z,52.03
2019-02-20T11:51:03.202Z,52.70
2019-02-20T11:53:37.037Z,52.21
2019-02-20T11:56:01.287Z,50.27
2019-02-20T11:58:29.355Z,49.75
2019-02-20T12:00:57.460Z,50.53
2019-02-20T12:03:25.453Z,51.40
2019-02-20T12:05:53.396Z,48.81
2019-02-20T12:08:21.381Z,47.97
2019-02-20T12:10:49.306Z,48.05
2019-02-20T12:13:17.228Z,46.96
2019-02-20T12:15:45.267Z,46.40
2019-02-20T12:18:17.363Z,47.46
2019-02-20T12:20:43.713Z,48.86
2019-02-20T12:23:11.685Z,46.90
2019-02-20T12:25:39.786Z,47.69
2019-02-20T12:28:07.834Z,47.80
2019-02-20T12:30:38.074Z,47.33
2019-02-20T12:33:06.208Z,47.04
2019-02-20T12:35:34.230Z,47.50
2019-02-20T12:38:02.600Z,47.21
2019-02-20T12:40:30.363Z,48.55
2019-02-20T12:42:59.438Z,48.00
2019-02-20T12:45:27.443Z,48.50
2019-02-20T12:47:55.299Z,50.70
2019-02-20T12:50:24.742Z,48.60
2019-02-20T12:52:52.877Z,49.12
2019-02-20T12:55:20.706Z,48.67
2019-02-20T12:57:48.511Z,48.66
2019-02-20T13:00:17.829Z,49.30
2019-02-20T13:02:45.853Z,50.03
2019-02-20T13:05:13.820Z,50.56
2019-02-20T13:07:41.701Z,51.19
2019-02-20T13:10:10.221Z,52.53
2019-02-20T13:12:38.138Z,52.01
2019-02-20T13:15:06.254Z,51.00
2019-02-20T13:17:34.254Z,50.73
2019-02-20T13:20:02.250Z,50.01
2019-02-20T13:22:33.502Z,50.10
2019-02-20T13:25:01.571Z,49.78
2019-02-20T13:27:32.936Z,50.41
2019-02-20T13:30:01.146Z,49.51
2019-02-20T13:32:29.202Z,50.07
2019-02-20T13:34:56.940Z,50.17
2019-02-20T13:37:25.221Z,49.54
2019-02-20T13:39:53.303Z,49.42
2019-02-20T13:42:22.066Z,48.77
2019-02-20T13:44:49.997Z,47.42
2019-02-20T13:47:19.340Z,47.92
2019-02-20T13:49:47.314Z,48.42
2019-02-20T13:52:18.675Z,47.43
2019-02-20T13:54:46.495Z,48.62
2019-02-20T13:57:15.121Z,49.13
2019-02-20T13:59:43.049Z,49.72
2019-02-20T14:02:10.963Z,49.62
2019-02-20T14:04:38.940Z,49.86
2019-02-20T14:07:06.816Z,49.18
2019-02-20T14:09:35.063Z,49.87
2019-02-20T14:12:03.439Z,50.46
2019-02-20T14:14:31.336Z,50.65
2019-02-20T14:16:59.660Z,49.91
2019-02-20T14:19:27.907Z,50.48
2019-02-20T14:21:56.074Z,50.79
2019-02-20T14:24:24.419Z,51.55
2019-02-20T14:26:52.594Z,51.53
2019-02-20T14:29:21.468Z,52.01
2019-02-20T14:31:49.870Z,51.95
2019-02-20T14:34:18.114Z,52.70
2019-02-20T14:36:46.325Z,52.35
2019-02-20T14:39:14.234Z,52.58
2019-02-20T14:41:42.545Z,52.63
2019-02-20T14:44:10.790Z,53.03
2019-02-20T14:46:38.749Z,53.26
2019-02-20T14:49:07.351Z,53.07
2019-02-20T14:51:35.301Z,53.61
2019-02-20T14:54:03.516Z,54.34
2019-02-20T14:56:31.767Z,54.40
2019-02-20T14:58:59.561Z,55.37
2019-02-20T15:01:27.606Z,55.57
2019-02-20T15:03:55.553Z,55.03
2019-02-20T15:06:23.877Z,55.50
2019-02-20T15:08:51.845Z,55.88
2019-02-20T15:11:20.000Z,56.32
2019-02-20T15:13:47.878Z,56.70
2019-02-20T15:16:15.825Z,56.98
2019-02-20T15:18:43.854Z,57.12
2019-02-20T15:21:11.859Z,57.49
2019-02-20T15:23:39.695Z,57.88
2019-02-20T15:26:07.571Z,58.21
2019-02-20T15:28:35.765Z,58.26
2019-02-20T15:31:03.869Z,58.71
2019-02-20T15:33:31.779Z,58.71
2019-02-20T15:35:59.734Z,59.25
2019-02-20T15:38:27.784Z,59.93
2019-02-20T15:40:55.780Z,60.47
2019-02-20T15:43:23.886Z,60.86
2019-02-20T15:45:52.090Z,61.23
2019-02-20T15:48:23.398Z,61.25
2019-02-20T15:50:49.794Z,61.48
2019-02-20T15:53:17.913Z,61.24
2019-02-20T15:55:45.831Z,61.26
2019-02-20T15:58:13.825Z,61.90
2019-02-20T16:00:41.758Z,62.28
2019-02-20T16:03:09.691Z,62.11
2019-02-20T16:05:38.667Z,62.18
2019-02-20T16:08:07.355Z,62.29
2019-02-20T16:10:35.103Z,62.37
2019-02-20T16:13:02.944Z,62.48
2019-02-20T16:15:30.854Z,62.54
2019-02-20T16:17:58.912Z,62.56
2019-02-20T16:20:27.029Z,62.91
2019-02-20T16:22:55.054Z,63.13
2019-02-20T16:25:25.006Z,63.80
2019-02-20T16:27:52.863Z,64.12
2019-02-20T16:30:20.927Z,64.17
2019-02-20T16:32:48.569Z,64.21
2019-02-20T16:35:16.442Z,64.61
2019-02-20T16:37:44.323Z,64.69
2019-02-20T16:40:12.332Z,64.97
2019-02-20T16:42:40.237Z,65.28
2019-02-20T16:45:19.147Z,65.46
2019-02-20T16:47:47.148Z,65.63
2019-02-20T16:50:15.348Z,65.85
2019-02-20T16:52:43.379Z,66.19
2019-02-20T16:55:11.508Z,66.58
2019-02-20T16:57:39.434Z,66.88
2019-02-20T17:00:08.639Z,67.12
2019-02-20T17:02:36.608Z,67.35
2019-02-20T17:05:04.529Z,67.64
2019-02-20T17:07:32.447Z,67.87
2019-02-20T17:10:00.352Z,68.08
2019-02-20T17:12:28.288Z,68.46
2019-02-20T17:14:56.724Z,69.06
2019-02-20T17:17:24.742Z,69.26
2019-02-20T17:19:52.828Z,69.59
2019-02-20T17:22:20.659Z,69.81
2019-02-20T17:24:48.818Z,69.96
2019-02-20T17:27:16.699Z,70.50
2019-02-20T17:29:44.935Z,70.71
2019-02-20T17:32:12.942Z,71.09
2019-02-20T17:34:40.627Z,70.92
2019-02-20T17:37:08.687Z,71.24
2019-02-20T17:39:36.634Z,71.39
2019-02-20T17:42:04.545Z,72.19
2019-02-20T17:44:32.516Z,73.06
2019-02-20T17:47:00.535Z,72.80
2019-02-20T17:49:28.832Z,72.56
2019-02-20T17:51:56.673Z,72.75
2019-02-20T17:54:24.807Z,72.70
2019-02-20T17:56:53.051Z,72.92
2019-02-20T17:59:21.020Z,72.79
2019-02-20T18:01:49.056Z,73.20
2019-02-20T18:04:16.994Z,73.47
2019-02-20T18:06:46.248Z,73.42
2019-02-20T18:09:14.335Z,73.52
2019-02-20T18:11:42.236Z,73.54
2019-02-20T18:14:10.355Z,73.89
2019-02-20T18:16:38.517Z,74.26
2019-02-20T18:19:06.561Z,74.39
2019-02-20T18:21:34.532Z,74.29
2019-02-20T18:24:02.520Z,74.37
2019-02-20T18:26:31.567Z,74.62
2019-02-20T18:28:59.776Z,74.98
2019-02-20T18:31:27.732Z,75.37
2019-02-20T18:33:57.646Z,75.43
2019-02-20T18:36:26.755Z,75.83
2019-02-20T18:38:54.853Z,75.66
2019-02-20T18:41:23.142Z,75.32
2019-02-20T18:43:51.067Z,75.23
2019-02-20T18:46:19.071Z,75.80
2019-02-20T18:48:47.137Z,75.81
2019-02-20T18:51:15.073Z,75.82
2019-02-20T18:53:44.961Z,75.84
2019-02-20T18:56:12.893Z,76.10
2019-02-20T18:58:41.067Z,76.17
2019-02-20T19:01:09.376Z,76.19
2019-02-20T19:03:37.597Z,76.50
2019-02-20T19:06:05.602Z,76.55
2019-02-20T19:09:00.415Z,76.65
2019-02-20T19:11:35.069Z,76.86
2019-02-20T19:14:41.628Z,77.35
2019-02-20T19:17:51.075Z,77.37
2019-02-20T19:21:15.962Z,77.46
2019-02-20T19:24:34.847Z,78.32
2019-02-20T19:27:56.500Z,78.10
2019-02-20T19:31:00.869Z,78.03
2019-02-20T19:34:09.425Z,79.09
2019-02-20T19:36:55.136Z,79.15
2019-02-20T19:39:56.554Z,78.78
2019-02-20T19:43:09.191Z,78.61
2019-02-20T19:45:56.649Z,78.63
2019-02-20T19:49:03.142Z,79.37
2019-02-20T19:52:13.112Z,79.19
2019-02-20T19:55:08.642Z,79.08
2019-02-20T19:58:17.617Z,78.94
2019-02-20T20:01:06.865Z,78.88
2019-02-20T20:04:05.577Z,79.07
2019-02-20T20:07:02.574Z,79.42
2019-02-20T20:10:06.757Z,79.59
2019-02-20T20:13:25.461Z,80.16
2019-02-20T20:16:42.753Z,80.71
2019-02-20T20:19:29.682Z,80.67
2019-02-20T20:22:45.069Z,80.28
2019-02-20T20:25:48.094Z,80.40
2019-02-20T20:28:40.364Z,80.38
2019-02-20T20:31:46.075Z,80.16
2019-02-20T20:34:51.214Z,80.08
2019-02-20T20:37:46.822Z,80.26
2019-02-20T20:40:31.996Z,80.45
2019-02-20T20:43:53.553Z,80.77
2019-02-20T20:47:17.366Z,80.76
2019-02-20T20:50:14.161Z,80.63
2019-02-20T20:53:38.872Z,80.87
2019-02-20T20:57:00.681Z,81.20
2019-02-20T20:59:56.974Z,81.84
2019-02-20T21:02:48.591Z,81.83
2019-02-20T21:06:01.119Z,81.61
2019-02-20T21:08:36.666Z,81.80
2019-02-20T21:11:48.862Z,81.81
2019-02-20T21:14:48.289Z,81.96
2019-02-20T21:18:04.166Z,82.06
2019-02-20T21:20:57.777Z,81.67
2019-02-20T21:24:34.825Z,81.58
2019-02-20T21:27:42.966Z,81.65
2019-02-20T21:30:35.482Z,81.65
2019-02-20T21:33:54.066Z,81.75
2019-02-20T21:36:32.981Z,82.07
2019-02-20T21:39:51.546Z,82.13
2019-02-20T21:42:51.328Z,82.57
2019-02-20T21:45:50.999Z,82.70
2019-02-20T21:48:59.061Z,82.97
2019-02-20T21:52:20.623Z,82.70
2019-02-20T21:54:56.518Z,82.61
2019-02-20T21:57:53.117Z,82.72
2019-02-20T22:00:46.849Z,82.83
2019-02-20T22:03:53.664Z,82.78
2019-02-20T22:06:40.786Z,83.42
2019-02-20T22:09:34.289Z,83.24
2019-02-20T22:12:38.442Z,83.30
2019-02-20T22:15:37.762Z,83.31
2019-02-20T22:18:30.828Z,83.52
2019-02-20T22:21:52.566Z,83.63
2019-02-20T22:24:45.835Z,83.64
2019-02-20T22:27:39.499Z,84.00
2019-02-20T22:30:23.029Z,83.95
2019-02-20T22:33:32.682Z,83.97
2019-02-20T22:36:51.747Z,83.97
2019-02-20T22:39:56.091Z,83.95
2019-02-20T22:43:11.465Z,84.00
2019-02-20T22:45:56.211Z,84.17
2019-02-20T22:48:47.734Z,84.26
2019-02-20T22:51:22.258Z,84.27
2019-02-20T22:54:14.209Z,84.14
2019-02-20T22:57:36.518Z,84.03
2019-02-20T23:00:52.656Z,83.93
2019-02-20T23:04:04.925Z,83.83
2019-02-20T23:06:46.379Z,83.92
2019-02-20T23:10:13.281Z,83.78
2019-02-20T23:13:16.647Z,83.81
2019-02-20T23:15:44.694Z,84.34
2019-02-20T23:18:12.584Z,84.57
2019-02-20T23:20:40.534Z,84.57
2019-02-20T23:23:08.971Z,84.43
2019-02-20T23:25:37.101Z,84.21
2019-02-20T23:28:06.076Z,84.04
2019-02-20T23:30:34.068Z,84.24
2019-02-20T23:33:02.096Z,84.23
2019-02-20T23:35:30.192Z,84.27
2019-02-20T23:37:58.266Z,84.34
2019-02-20T23:40:27.733Z,84.34
2019-02-20T23:42:55.804Z,84.18
2019-02-20T23:45:23.664Z,84.07
2019-02-20T23:47:51.507Z,84.24
2019-02-20T23:50:19.637Z,84.22
2019-02-20T23:52:47.757Z,84.37
2019-02-20T23:55:15.834Z,84.62
2019-02-20T23:57:43.786Z,85.04
